Observations for TREVISO CIV IT-AFB, Italy (LIPH)

LIPH 180650Z 05005KT 010V100 CAVOK 26/17 Q1015  
LIPH 180620Z 06005KT CAVOK 25/16 Q1015  
LIPH 180550Z 06003KT CAVOK 25/16 Q1015  
LIPH 180520Z VRB01KT CAVOK 24/17 Q1015  
LIPH 180450Z AUTO VRB01KT 9999 NCD 23/18 Q1015  
LIPH 180420Z AUTO 35003KT 9999 NCD 22/16 Q1015  
LIPH 180350Z AUTO 34003KT 9999 NCD 21/16 Q1015  
LIPH 180320Z AUTO VRB02KT 9999 NCD 21/16 Q1015  
LIPH 180250Z AUTO VRB02KT 9999 NCD 21/16 Q1015  
LIPH 180220Z AUTO VRB01KT 9999 NCD 22/16 Q1015  
LIPH 180150Z AUTO 35002KT 9999 NCD 22/16 Q1015  
LIPH 180120Z AUTO 36003KT 9999 NCD 23/16 Q1015  
LIPH 180050Z AUTO 04004KT 9999 NCD 23/16 Q1015  
LIPH 180020Z AUTO 02005KT 9999 NCD 24/16 Q1015  
LIPH 172350Z AUTO 01005KT 9999 FEW084/// 23/16 Q1016
LIPH 172350Z AUTO 01005KT 9999 FEW084 23/16 Q1016
LIPH 172320Z AUTO 02004KT 9999 NCD 23/16 Q1016  
LIPH 172250Z AUTO 36004KT 9999 NCD 24/16 Q1016  
LIPH 172220Z AUTO 02004KT 9999 R07/1400U NCD 24/16 Q1016
LIPH 172150Z AUTO 01003KT 9999 FEW140/// 25/16 Q1016
LIPH 172150Z AUTO 01003KT 9999 FEW140 25/16 Q1016
LIPH 172120Z AUTO 04003KT 9999 NCD 25/16 Q1016  
LIPH 172050Z 06006KT CAVOK 25/16 Q1015  
LIPH 172020Z 06007KT CAVOK 25/16 Q1015  
LIPH 171950Z VRB02KT CAVOK 25/16 Q1015  
LIPH 171920Z VRB01KT CAVOK 25/16 Q1014  
LIPH 171850Z 13003KT 090V150 CAVOK 27/15 Q1014  
LIPH 171750Z 13004KT 100V160 CAVOK 28/16 Q1014  
LIPH 171720Z 13006KT CAVOK 29/15 Q1014  
LIPH 171650Z 14007KT 110V190 CAVOK 29/15 Q1014  
LIPH 171620Z 15007KT 120V210 CAVOK 29/15 Q1014  
LIPH 171550Z 14008KT 100V170 CAVOK 30/17 Q1014  
LIPH 171520Z 10008KT 080V140 CAVOK 30/17 Q1014  
LIPH 171450Z 14008G18KT 070V210 CAVOK 30/16 Q1014   
LIPH 171420Z 06005KT 040V110 CAVOK 30/16 Q1014  
LIPH 171350Z 08007KT 040V100 CAVOK 30/15 Q1014  
LIPH 171320Z 09005KT 030V140 CAVOK 30/16 Q1015  
LIPH 171250Z 09008KT 010V130 CAVOK 30/15 Q1015  
LIPH 171220Z 07008KT 030V110 CAVOK 30/16 Q1015  
LIPH 171150Z 06008KT 020V110 CAVOK 30/16 Q1015  
LIPH 171120Z 08008KT 030V130 CAVOK 30/15 Q1015  
LIPH 171050Z 07008KT 030V100 CAVOK 29/15 Q1016  
LIPH 171020Z 05008KT 340V100 CAVOK 29/14 Q1016  
LIPH 170950Z 07009KT 030V110 CAVOK 29/14 Q1016  
LIPH 170920Z 08008KT 050V110 CAVOK 28/15 Q1016  
LIPH 170850Z 06007KT 020V100 CAVOK 28/15 Q1016  
LIPH 170820Z 06009KT CAVOK 27/15 Q1016  
LIPH 170750Z 07005KT CAVOK 27/15 Q1016  
LIPH 170720Z 06004KT 030V100 CAVOK 26/17 Q1016  
LIPH 170650Z 06004KT CAVOK 25/17 Q1016  
LIPH 170620Z 05005KT 010V080 CAVOK 24/16 Q1016